Time;durP1;ratioP1;P1;durP2;ratioP2;P2;SDS_P1;SDS_P2;PMS_P1;PMS_P2;Temp;Humidity;BMP_temperature;BMP_pressure;BME280_temperature;BME280_humidity;BME280_pressure;Samples;Min_cycle;Max_cycle;Signal;HPM_P1;HPM_P2
2021/10/18 00:00:14;;;;;;;16.65;9.23;;;;;;;11.61;70.36;102066.84;5041395;28;20060;-45
2021/10/18 00:02:40;;;;;;;14.80;8.63;;;;;;;11.64;70.63;102064.69;5054329;28;20033;-45
2021/10/18 00:05:06;;;;;;;18.67;9.75;;;;;;;11.61;70.64;102073.09;5055106;28;20036;-48
2021/10/18 00:07:32;;;;;;;17.92;9.98;;;;;;;11.59;70.55;102064.31;5054909;28;20068;-46
2021/10/18 00:09:57;;;;;;;21.35;9.20;;;;;;;11.61;70.36;102066.84;5054767;28;20052;-45
2021/10/18 00:12:22;;;;;;;20.85;10.77;;;;;;;11.60;70.54;102071.38;5040394;28;20061;-46
2021/10/18 00:14:48;;;;;;;16.67;10.18;;;;;;;11.59;70.32;102077.78;5033978;28;20112;-45
2021/10/18 00:17:13;;;;;;;18.55;10.15;;;;;;;11.60;70.42;102074.09;5035689;28;20025;-47
2021/10/18 00:19:39;;;;;;;16.30;10.05;;;;;;;11.64;70.78;102078.16;5034824;28;20380;-46
2021/10/18 00:22:04;;;;;;;17.17;10.50;;;;;;;11.59;70.71;102075.09;5034869;28;20028;-48
2021/10/18 00:24:29;;;;;;;15.70;9.68;;;;;;;11.62;70.62;102074.78;5034652;28;20026;-45
2021/10/18 00:26:55;;;;;;;16.80;10.15;;;;;;;11.64;70.65;102078.16;5034580;28;20037;-45
2021/10/18 00:29:20;;;;;;;16.25;9.85;;;;;;;11.64;70.56;102072.78;5034329;28;20060;-47
2021/10/18 00:31:46;;;;;;;17.17;10.30;;;;;;;11.64;70.75;102096.19;5034701;28;20030;-46
2021/10/18 00:34:11;;;;;;;19.92;9.98;;;;;;;11.60;70.69;102081.34;5033226;28;20044;-47
2021/10/18 00:36:37;;;;;;;13.80;9.55;;;;;;;11.59;71.18;102090.44;5034396;28;20021;-46
2021/10/18 00:39:03;;;;;;;21.45;10.02;;;;;;;11.56;71.61;102090.75;5034337;28;20029;-46
2021/10/18 00:41:28;;;;;;;17.63;10.07;;;;;;;11.52;71.65;102092.06;5043001;28;20086;-46
2021/10/18 00:43:55;;;;;;;25.52;10.40;;;;;;;11.49;71.71;102090.53;5054489;28;20037;-46
2021/10/18 00:46:22;;;;;;;17.63;10.10;;;;;;;11.46;71.17;102096.25;5042552;28;20211;-46
2021/10/18 00:48:49;;;;;;;17.23;9.70;;;;;;;11.49;71.77;102090.53;5034114;28;20053;-47
2021/10/18 00:51:15;;;;;;;18.35;10.13;;;;;;;11.44;71.69;102092.84;5034207;28;20476;-46
2021/10/18 00:53:42;;;;;;;17.45;11.05;;;;;;;11.44;71.69;102098.25;5033015;28;20443;-50
2021/10/18 00:56:07;;;;;;;18.73;10.35;;;;;;;11.40;71.70;102091.47;5033977;28;20017;-46
2021/10/18 00:58:32;;;;;;;19.05;10.75;;;;;;;11.39;71.84;102077.13;5033895;28;20396;-47
2021/10/18 01:00:58;;;;;;;16.50;9.88;;;;;;;11.37;71.75;102081.00;5045875;28;20090;-46
2021/10/18 01:03:24;;;;;;;21.45;10.90;;;;;;;11.35;71.96;102077.63;5032606;28;20461;-46
2021/10/18 01:05:50;;;;;;;17.75;10.50;;;;;;;11.34;71.67;102076.75;5033752;28;20073;-46
2021/10/18 01:08:15;;;;;;;18.70;11.20;;;;;;;11.31;71.40;102087.03;5032608;28;20481;-46
2021/10/18 01:10:40;;;;;;;20.90;11.60;;;;;;;11.30;71.80;102083.47;5034396;28;20032;-49
2021/10/18 01:13:06;;;;;;;19.10;10.65;;;;;;;11.31;71.76;102087.03;5053776;28;20021;-47
2021/10/18 01:15:31;;;;;;;19.00;10.55;;;;;;;11.32;71.68;102083.31;5053733;28;20029;-47
2021/10/18 01:17:57;;;;;;;26.48;11.02;;;;;;;11.34;72.10;102084.00;5053774;28;20078;-48
2021/10/18 01:20:36;;;;;;;17.02;10.43;;;;;;;11.34;71.98;102073.22;5052304;28;20033;-47
2021/10/18 01:23:03;;;;;;;21.58;11.50;;;;;;;11.33;71.85;102080.47;5053750;28;20040;-47
2021/10/18 01:25:28;;;;;;;19.63;11.07;;;;;;;11.28;72.03;102074.69;5050639;28;20036;-46
2021/10/18 01:27:54;;;;;;;24.35;11.63;;;;;;;11.21;72.66;102082.56;5053587;28;20025;-47
2021/10/18 01:30:20;;;;;;;20.95;11.95;;;;;;;11.21;72.46;102071.78;5053277;28;20452;-46
2021/10/18 01:32:45;;;;;;;22.40;11.80;;;;;;;11.16;72.65;102063.34;5053253;28;20048;-46
2021/10/18 01:35:11;;;;;;;19.88;11.50;;;;;;;11.14;72.97;102059.09;5052103;28;20035;-47
2021/10/18 01:37:36;;;;;;;18.65;11.52;;;;;;;11.09;73.18;102047.94;5053335;28;20025;-46
2021/10/18 01:40:10;;;;;;;19.23;10.98;;;;;;;11.01;73.51;102054.13;5042221;28;20025;-46
2021/10/18 01:42:36;;;;;;;19.40;11.43;;;;;;;10.95;73.67;102060.97;5033201;28;20037;-46
2021/10/18 01:45:03;;;;;;;20.17;11.63;;;;;;;10.88;74.31;102056.34;5033211;28;20056;-46
2021/10/18 01:47:28;;;;;;;22.33;12.40;;;;;;;10.82;74.22;102059.63;5032989;28;20047;-47
2021/10/18 01:49:56;;;;;;;18.40;12.13;;;;;;;10.78;74.47;102059.09;5048817;28;20065;-46
2021/10/18 01:52:22;;;;;;;22.70;12.68;;;;;;;10.73;74.68;102056.03;5073207;28;20103;-48
2021/10/18 01:54:47;;;;;;;20.35;12.60;;;;;;;10.68;75.27;102059.16;5073032;28;20510;-46
2021/10/18 01:57:12;;;;;;;23.40;12.93;;;;;;;10.62;75.25;102062.47;5071675;28;20036;-46
2021/10/18 01:59:38;;;;;;;25.10;13.10;;;;;;;10.57;75.42;102059.41;5061980;28;20024;-46
2021/10/18 02:02:03;;;;;;;19.13;12.63;;;;;;;10.54;75.54;102062.41;5036447;28;20163;-48
2021/10/18 02:04:28;;;;;;;21.67;13.13;;;;;;;10.51;76.07;102062.72;5033077;28;20456;-47
2021/10/18 02:06:53;;;;;;;23.30;13.02;;;;;;;10.47;75.96;102066.69;5033827;28;20587;-46
2021/10/18 02:09:19;;;;;;;25.80;12.90;;;;;;;10.44;76.23;102056.22;5052715;28;20032;-45
2021/10/18 02:11:44;;;;;;;27.23;12.60;;;;;;;10.41;76.27;102061.91;5052738;28;20059;-46
2021/10/18 02:14:09;;;;;;;26.00;13.13;;;;;;;10.35;77.01;102058.00;5052837;28;20115;-46
2021/10/18 02:16:35;;;;;;;19.00;12.32;;;;;;;10.29;77.24;102054.06;5052660;28;20120;-46
2021/10/18 02:19:00;;;;;;;21.05;12.23;;;;;;;10.26;77.18;102050.78;5052489;28;20400;-46
2021/10/18 02:21:25;;;;;;;24.83;13.02;;;;;;;10.25;77.24;102051.78;5064730;28;20021;-47
2021/10/18 02:23:51;;;;;;;27.77;12.13;;;;;;;10.21;76.89;102045.84;5052687;28;20052;-46
2021/10/18 02:26:16;;;;;;;24.80;12.07;;;;;;;10.21;76.91;102045.84;5052534;28;20021;-47
2021/10/18 02:28:41;;;;;;;21.63;13.02;;;;;;;10.19;76.99;102053.22;5052368;28;20048;-46
2021/10/18 02:31:07;;;;;;;23.95;12.95;;;;;;;10.16;76.80;102048.13;5052306;28;20140;-46
2021/10/18 02:33:32;;;;;;;23.25;12.82;;;;;;;10.16;77.16;102048.13;5051486;28;20196;-46
2021/10/18 02:35:57;;;;;;;21.77;13.10;;;;;;;10.16;77.00;102042.75;5041893;28;20037;-47
2021/10/18 02:38:23;;;;;;;21.60;13.05;;;;;;;10.12;76.49;102038.69;5032610;28;20040;-47
2021/10/18 02:40:48;;;;;;;24.33;13.50;;;;;;;10.11;77.03;102037.84;5032444;28;20021;-46
2021/10/18 02:43:13;;;;;;;31.70;13.57;;;;;;;10.10;76.93;102037.97;5038351;28;20029;-46
2021/10/18 02:45:39;;;;;;;23.60;12.98;;;;;;;10.07;77.29;102030.22;5048578;28;20025;-47
2021/10/18 02:48:04;;;;;;;22.67;12.43;;;;;;;10.06;76.77;102041.97;5032355;28;20026;-46
2021/10/18 02:50:30;;;;;;;23.90;13.27;;;;;;;10.02;77.22;102035.19;5045978;28;20025;-46
2021/10/18 02:52:55;;;;;;;24.55;13.75;;;;;;;9.98;77.10;102039.16;5052224;28;20021;-47
2021/10/18 02:55:20;;;;;;;21.02;14.30;;;;;;;9.95;77.22;102044.84;5052275;28;20029;-46
2021/10/18 02:57:46;;;;;;;23.02;13.30;;;;;;;9.91;77.77;102046.16;5053451;28;20037;-47
2021/10/18 03:00:11;;;;;;;21.13;12.55;;;;;;;9.89;77.54;102047.13;5062690;28;20028;-47
2021/10/18 03:02:37;;;;;;;23.17;13.85;;;;;;;9.86;77.75;102046.59;5051388;28;20074;-47
2021/10/18 03:05:03;;;;;;;18.90;13.68;;;;;;;9.85;77.51;102048.44;5052063;28;20112;-47
2021/10/18 03:07:28;;;;;;;21.10;13.65;;;;;;;9.84;77.62;102049.41;5051976;28;20029;-47
2021/10/18 03:09:53;;;;;;;23.00;14.18;;;;;;;9.82;78.01;102046.03;5051951;28;20025;-47
2021/10/18 03:12:19;;;;;;;26.27;14.43;;;;;;;9.82;77.82;102051.41;5049810;28;20029;-47
2021/10/18 03:14:44;;;;;;;24.77;15.20;;;;;;;9.79;77.84;102046.31;5032192;28;20141;-47
2021/10/18 03:17:09;;;;;;;24.00;15.15;;;;;;;9.75;78.14;102042.25;5032161;28;20026;-46
2021/10/18 03:19:35;;;;;;;23.98;14.65;;;;;;;9.72;78.26;102036.31;5032161;28;20032;-47
2021/10/18 03:22:00;;;;;;;22.92;14.27;;;;;;;9.73;78.14;102033.47;5032136;28;20109;-47
2021/10/18 03:24:25;;;;;;;26.55;13.25;;;;;;;9.69;78.24;102034.78;5050230;28;20040;-47
2021/10/18 03:26:51;;;;;;;32.85;15.02;;;;;;;9.68;78.11;102033.06;5056604;28;20063;-46
2021/10/18 03:29:16;;;;;;;24.35;13.85;;;;;;;9.72;77.85;102034.47;5070461;28;20131;-46
2021/10/18 03:31:41;;;;;;;24.23;14.25;;;;;;;9.66;78.64;102038.59;5057325;28;20040;-47
2021/10/18 03:34:07;;;;;;;21.40;14.15;;;;;;;9.62;78.59;102039.88;5036062;28;20067;-47
2021/10/18 03:36:32;;;;;;;31.45;13.77;;;;;;;9.56;78.84;102042.31;5032051;28;20101;-49
2021/10/18 03:38:57;;;;;;;24.25;14.50;;;;;;;9.46;79.23;102036.97;5036691;28;20085;-47
2021/10/18 03:41:23;;;;;;;24.30;14.60;;;;;;;9.38;79.54;102045.75;5031924;28;20025;-49
2021/10/18 03:43:48;;;;;;;27.95;14.35;;;;;;;9.32;79.76;102045.44;5048960;28;20441;-46
2021/10/18 03:46:13;;;;;;;22.17;13.48;;;;;;;9.26;80.04;102043.34;5071743;28;20029;-48
2021/10/18 03:48:39;;;;;;;33.33;14.88;;;;;;;9.18;80.39;102039.53;5071453;28;20028;-50
2021/10/18 03:51:04;;;;;;;28.90;14.20;;;;;;;9.14;80.49;102045.38;5073971;28;20029;-46
2021/10/18 03:53:29;;;;;;;26.42;15.13;;;;;;;9.10;80.78;102044.78;5064200;28;20033;-50
2021/10/18 03:55:55;;;;;;;25.88;14.20;;;;;;;9.06;81.25;102047.88;5055311;28;20488;-46
2021/10/18 03:58:20;;;;;;;27.90;15.27;;;;;;;9.00;81.57;102050.19;5068976;28;20486;-47
2021/10/18 04:00:45;;;;;;;25.45;14.18;;;;;;;8.98;81.57;102062.06;5049559;28;20026;-46
2021/10/18 04:03:11;;;;;;;23.90;15.57;;;;;;;8.94;81.79;102056.09;5035461;28;20025;-46
2021/10/18 04:05:36;;;;;;;31.33;16.08;;;;;;;8.88;81.93;102050.47;5035286;28;20111;-47
2021/10/18 04:08:01;;;;;;;31.15;15.82;;;;;;;8.85;82.16;102048.91;5041314;28;20036;-47
2021/10/18 04:10:27;;;;;;;25.60;17.33;;;;;;;8.84;82.61;102046.34;5048936;28;20120;-46
2021/10/18 04:12:52;;;;;;;28.60;16.25;;;;;;;8.85;82.62;102040.00;5054021;28;20096;-47
2021/10/18 04:15:19;;;;;;;28.10;16.23;;;;;;;8.86;82.57;102041.69;5054580;28;20037;-47
2021/10/18 04:17:45;;;;;;;26.52;16.27;;;;;;;8.84;82.23;102041.81;5053532;28;20154;-47
2021/10/18 04:20:10;;;;;;;27.77;16.50;;;;;;;8.81;83.09;102044.78;5054908;28;20107;-46
2021/10/18 04:22:36;;;;;;;39.38;17.83;;;;;;;8.81;82.92;102054.69;5054034;28;20040;-47
2021/10/18 04:25:02;;;;;;;31.58;17.08;;;;;;;8.78;82.81;102047.75;5054603;28;20113;-47
2021/10/18 04:27:27;;;;;;;34.15;17.27;;;;;;;8.76;83.20;102055.94;5052781;28;20029;-47
2021/10/18 04:29:52;;;;;;;35.55;17.52;;;;;;;8.76;83.12;102049.72;5051594;28;20397;-47
2021/10/18 04:32:18;;;;;;;28.73;17.30;;;;;;;8.75;83.18;102048.88;5045452;28;20427;-47
2021/10/18 04:34:44;;;;;;;29.67;17.58;;;;;;;8.74;83.08;102057.94;5048907;28;20052;-49
2021/10/18 04:37:10;;;;;;;31.08;17.38;;;;;;;8.72;83.04;102046.50;5047898;28;20029;-46
2021/10/18 04:39:35;;;;;;;35.03;18.67;;;;;;;8.73;82.94;102052.69;5053187;28;20033;-47
2021/10/18 04:42:00;;;;;;;32.35;17.50;;;;;;;8.73;82.66;102058.06;5052021;28;20029;-49
2021/10/18 04:44:26;;;;;;;29.52;16.65;;;;;;;8.73;82.70;102058.91;5052604;28;20021;-47
2021/10/18 04:46:51;;;;;;;34.33;17.98;;;;;;;8.71;82.76;102065.41;5053128;28;20116;-46
2021/10/18 04:49:16;;;;;;;30.98;18.48;;;;;;;8.70;82.52;102063.72;5052983;28;20025;-47
2021/10/18 04:51:42;;;;;;;33.40;17.90;;;;;;;8.69;82.40;102062.88;5048136;28;20434;-48
2021/10/18 04:54:07;;;;;;;32.67;17.52;;;;;;;8.70;82.61;102061.88;5052997;28;20044;-46
2021/10/18 04:56:32;;;;;;;39.22;19.27;;;;;;;8.69;82.03;102062.00;5050618;28;20048;-46
2021/10/18 04:58:58;;;;;;;32.95;19.15;;;;;;;8.65;82.77;102065.97;5052308;28;20033;-46
2021/10/18 05:01:23;;;;;;;36.30;18.80;;;;;;;8.64;82.67;102069.66;5051696;28;20079;-46
2021/10/18 05:03:48;;;;;;;36.30;17.73;;;;;;;8.62;82.67;102056.38;5053126;28;20108;-46
2021/10/18 05:06:14;;;;;;;32.30;17.92;;;;;;;8.60;82.49;102052.97;5052879;28;20032;-46
2021/10/18 05:08:39;;;;;;;33.70;18.52;;;;;;;8.59;82.37;102058.50;5052941;28;20021;-45
2021/10/18 05:11:05;;;;;;;35.50;18.58;;;;;;;8.57;82.57;102056.78;5053069;28;20025;-47
2021/10/18 05:13:30;;;;;;;35.47;19.27;;;;;;;8.57;82.42;102064.81;5053138;28;20017;-48
2021/10/18 05:15:55;;;;;;;36.13;18.70;;;;;;;8.54;81.99;102065.09;5056613;28;20627;-45
2021/10/18 05:18:21;;;;;;;33.45;18.42;;;;;;;8.54;82.19;102075.00;5052619;28;20021;-46
2021/10/18 05:20:48;;;;;;;35.17;18.35;;;;;;;8.55;82.49;102082.06;5053830;28;20448;-48
2021/10/18 05:23:13;;;;;;;39.22;18.98;;;;;;;8.55;82.44;102082.88;5057076;28;20527;-46
2021/10/18 05:25:39;;;;;;;51.17;19.15;;;;;;;8.60;82.02;102076.28;5052468;28;20124;-46
2021/10/18 05:28:05;;;;;;;31.27;18.58;;;;;;;8.61;81.91;102075.28;5052504;28;20112;-46
2021/10/18 05:30:30;;;;;;;35.58;18.30;;;;;;;8.67;80.58;102080.09;5052421;28;20097;-45
2021/10/18 05:32:57;;;;;;;38.50;17.48;;;;;;;8.70;80.33;102072.63;5051813;28;20593;-48
2021/10/18 05:35:23;;;;;;;33.92;17.45;;;;;;;8.70;80.55;102059.19;5052184;28;20049;-47
2021/10/18 05:37:49;;;;;;;35.85;18.75;;;;;;;8.71;80.82;102062.72;5051872;28;20025;-46
2021/10/18 05:40:16;;;;;;;31.60;18.60;;;;;;;8.70;80.87;102059.19;5048313;28;20021;-46
2021/10/18 05:42:42;;;;;;;32.05;18.42;;;;;;;8.71;80.64;102060.03;5048904;28;20067;-46
2021/10/18 05:45:08;;;;;;;33.63;17.85;;;;;;;8.69;80.69;102062.00;5050847;28;20033;-47
2021/10/18 05:47:34;;;;;;;34.38;18.80;;;;;;;8.67;80.77;102067.53;5047725;28;20403;-47
2021/10/18 05:50:00;;;;;;;38.83;18.55;;;;;;;8.65;80.87;102065.97;5051427;28;20037;-48
2021/10/18 05:52:28;;;;;;;37.72;20.23;;;;;;;8.62;81.20;102072.47;5046109;28;20108;-45
2021/10/18 05:54:55;;;;;;;36.25;19.58;;;;;;;8.59;81.08;102066.53;5047085;28;20021;-46
2021/10/18 05:57:20;;;;;;;31.35;19.10;;;;;;;8.59;81.13;102058.50;5048016;28;20025;-46
2021/10/18 05:59:45;;;;;;;35.88;19.73;;;;;;;8.59;81.24;102056.66;5052200;28;20378;-47
2021/10/18 06:02:11;;;;;;;33.78;19.23;;;;;;;8.61;81.43;102062.72;5050466;28;20379;-47
2021/10/18 06:04:41;;;;;;;34.92;20.50;;;;;;;8.63;81.85;102054.53;5051763;28;20032;-45
2021/10/18 06:07:07;;;;;;;35.72;19.27;;;;;;;8.64;81.78;102059.78;5047211;28;20037;-46
2021/10/18 06:09:32;;;;;;;34.15;20.05;;;;;;;8.64;81.26;102065.13;5050856;28;20091;-46
2021/10/18 06:11:58;;;;;;;42.78;20.65;;;;;;;8.66;81.50;102067.66;5049929;28;20035;-46
2021/10/18 06:14:23;;;;;;;37.05;20.40;;;;;;;8.66;81.40;102071.22;5051162;28;20052;-47
2021/10/18 06:16:48;;;;;;;33.72;20.00;;;;;;;8.66;81.64;102070.34;5050999;28;20029;-48
2021/10/18 06:19:14;;;;;;;41.90;21.60;;;;;;;8.64;81.42;102061.59;5051685;28;20029;-48
2021/10/18 06:21:39;;;;;;;41.58;21.65;;;;;;;8.66;81.72;102056.94;5050338;28;20108;-44
2021/10/18 06:24:04;;;;;;;40.35;22.17;;;;;;;8.67;80.81;102056.81;5047471;28;20028;-48
2021/10/18 06:26:30;;;;;;;41.08;21.33;;;;;;;8.69;81.03;102064.69;5051666;28;20107;-47
2021/10/18 06:28:55;;;;;;;34.55;20.92;;;;;;;8.71;80.49;102076.16;5048702;28;20111;-49
2021/10/18 06:31:22;;;;;;;39.63;21.08;;;;;;;8.73;80.92;102084.91;5048823;28;20151;-49
2021/10/18 06:33:47;;;;;;;37.22;20.70;;;;;;;8.72;80.30;102085.91;5046304;28;20135;-47
2021/10/18 06:36:13;;;;;;;37.63;21.00;;;;;;;8.75;80.45;102085.63;5044508;28;20049;-48
2021/10/18 06:38:38;;;;;;;38.65;21.30;;;;;;;8.78;80.07;102079.97;5017387;28;20052;-46
2021/10/18 06:41:03;;;;;;;39.50;22.17;;;;;;;8.84;80.30;102086.63;5036988;28;20123;-45
2021/10/18 06:43:29;;;;;;;35.60;21.23;;;;;;;8.85;80.54;102091.84;5046671;28;20550;-47
2021/10/18 06:45:54;;;;;;;40.45;22.00;;;;;;;8.85;79.87;102086.50;5045806;28;20042;-49
2021/10/18 06:48:20;;;;;;;41.92;22.55;;;;;;;8.89;79.80;102082.50;5032655;28;20033;-46
2021/10/18 06:50:47;;;;;;;39.72;22.58;;;;;;;8.95;79.51;102081.97;5045566;28;20066;-46
2021/10/18 06:53:29;;;;;;;38.08;20.83;;;;;;;9.04;79.16;102076.75;5047811;28;20078;-47
2021/10/18 06:55:54;;;;;;;44.53;22.33;;;;;;;9.08;78.96;102080.81;5044004;28;20037;-48
2021/10/18 06:58:20;;;;;;;42.67;22.27;;;;;;;9.06;79.05;102074.75;5032939;28;20040;-47
2021/10/18 07:00:46;;;;;;;41.22;21.77;;;;;;;9.05;78.82;102092.69;5043344;28;20061;-45
2021/10/18 07:03:11;;;;;;;39.85;21.30;;;;;;;9.08;78.92;102095.09;5044424;28;20116;-47
2021/10/18 07:05:36;;;;;;;42.17;21.42;;;;;;;9.07;79.11;102097.94;5042546;28;20039;-47
2021/10/18 07:08:02;;;;;;;43.20;21.77;;;;;;;9.04;79.00;102106.28;5032335;28;20055;-46
2021/10/18 07:10:27;;;;;;;37.80;20.42;;;;;;;9.16;79.26;102116.75;5047126;28;20427;-45
2021/10/18 07:12:53;;;;;;;37.58;21.27;;;;;;;9.21;78.62;102116.31;5046979;28;20086;-46
2021/10/18 07:15:18;;;;;;;41.97;21.98;;;;;;;9.21;78.56;102121.69;5047393;28;20059;-46
2021/10/18 07:17:43;;;;;;;43.90;23.30;;;;;;;9.26;79.02;102123.94;5033410;28;20490;-43
2021/10/18 07:20:09;;;;;;;40.08;21.23;;;;;;;9.24;78.78;102129.44;5043241;28;20029;-47
2021/10/18 07:22:44;;;;;;;41.65;20.63;;;;;;;9.33;78.53;102130.47;5045706;28;20037;-47
2021/10/18 07:25:11;;;;;;;37.45;21.08;;;;;;;9.35;78.50;102128.47;5050419;28;20434;-45
2021/10/18 07:27:37;;;;;;;38.20;21.30;;;;;;;9.37;78.13;102140.78;5041595;28;20491;-45
2021/10/18 07:30:03;;;;;;;38.08;20.98;;;;;;;9.49;77.87;102135.25;5046897;28;20055;-46
2021/10/18 07:32:29;;;;;;;40.72;21.98;;;;;;;9.56;77.49;102137.22;5048860;28;20045;-46
2021/10/18 07:34:56;;;;;;;40.90;21.30;;;;;;;9.54;77.35;102138.34;5050625;28;20031;-45
2021/10/18 07:37:26;;;;;;;40.63;20.80;;;;;;;9.56;77.58;102136.38;5049870;28;20560;-46
2021/10/18 07:39:51;;;;;;;37.55;21.65;;;;;;;9.61;77.35;102128.72;5051727;28;20115;-46
2021/10/18 07:42:17;;;;;;;38.40;20.25;;;;;;;9.76;76.60;102135.31;5051346;28;20025;-47
2021/10/18 07:44:42;;;;;;;41.22;21.48;;;;;;;9.85;76.42;102141.69;5050463;28;20095;-46
2021/10/18 07:47:08;;;;;;;41.63;21.30;;;;;;;9.84;76.21;102138.13;5048488;28;20520;-46
2021/10/18 07:49:36;;;;;;;39.45;20.63;;;;;;;9.84;76.49;102140.81;5050993;28;20025;-46
2021/10/18 07:52:04;;;;;;;53.85;20.17;;;;;;;10.03;76.22;102133.69;5050960;28;20023;-46
2021/10/18 07:54:30;;;;;;;38.22;21.50;;;;;;;10.06;76.13;102128.06;5054884;28;20032;-46
2021/10/18 07:56:56;;;;;;;39.55;20.38;;;;;;;10.14;75.46;102121.91;5053078;28;20484;-46
2021/10/18 07:59:21;;;;;;;34.78;20.05;;;;;;;10.07;75.40;102127.03;5041857;28;20112;-48
2021/10/18 08:01:47;;;;;;;38.13;20.90;;;;;;;10.09;75.26;102119.69;5050276;28;20029;-47
2021/10/18 08:04:12;;;;;;;36.47;20.73;;;;;;;10.25;74.81;102116.34;5051349;28;20033;-47
2021/10/18 08:06:37;;;;;;;38.28;21.25;;;;;;;10.25;74.91;102132.50;5051960;28;20060;-46
2021/10/18 08:09:03;;;;;;;35.17;19.13;;;;;;;10.41;74.11;102126.50;5036801;28;20084;-46
2021/10/18 08:11:28;;;;;;;41.05;19.38;;;;;;;10.39;73.89;102123.13;5050983;28;20040;-46
2021/10/18 08:13:54;;;;;;;41.33;20.40;;;;;;;10.29;74.09;102129.41;5042154;28;20033;-46
2021/10/18 08:16:19;;;;;;;40.80;19.58;;;;;;;10.22;74.88;102120.19;5046792;28;20147;-47
2021/10/18 08:18:44;;;;;;;37.40;20.83;;;;;;;10.10;75.16;102114.13;5050894;28;20437;-45
2021/10/18 08:21:11;;;;;;;41.42;20.48;;;;;;;10.03;75.27;102117.56;5062446;28;20532;-46
2021/10/18 08:23:37;;;;;;;38.88;20.70;;;;;;;9.98;75.48;102122.53;5055689;28;20029;-46
2021/10/18 08:26:04;;;;;;;42.20;20.40;;;;;;;9.99;75.91;102116.19;5050870;28;20036;-46
2021/10/18 08:28:30;;;;;;;38.97;20.57;;;;;;;10.19;75.82;102117.81;5049729;28;20442;-46
2021/10/18 08:30:56;;;;;;;37.25;21.35;;;;;;;10.30;75.37;102109.56;5036226;28;20021;-47
2021/10/18 08:33:21;;;;;;;40.75;20.92;;;;;;;10.44;74.60;102110.06;5036692;28;20076;-46
2021/10/18 08:35:47;;;;;;;37.92;20.63;;;;;;;10.64;74.07;102106.25;5049001;28;20139;-47
2021/10/18 08:38:46;;;;;;;35.03;19.35;;;;;;;11.28;71.43;102098.97;5050492;28;20029;-47
2021/10/18 08:41:16;;;;;;;34.45;19.10;;;;;;;11.73;69.79;102094.41;5050284;28;20094;-47
2021/10/18 08:46:26;;;;;;;36.25;18.80;;;;;;;12.06;67.96;102081.97;5031392;28;20408;-49
2021/10/18 08:48:54;;;;;;;32.78;18.35;;;;;;;11.62;69.34;102084.72;5049736;28;20040;-48
2021/10/18 08:51:20;;;;;;;32.03;18.98;;;;;;;11.45;70.38;102089.13;5053895;28;20028;-50
2021/10/18 08:53:46;;;;;;;33.78;20.00;;;;;;;11.27;70.87;102091.00;5043734;28;20026;-48
2021/10/18 08:56:11;;;;;;;35.25;19.65;;;;;;;11.23;71.00;102095.88;5034398;28;20112;-49
2021/10/18 08:58:37;;;;;;;28.90;19.02;;;;;;;11.28;70.68;102092.72;5057845;28;20039;-51
2021/10/18 09:01:03;;;;;;;33.55;19.00;;;;;;;11.13;71.31;102074.41;5054312;28;20143;-47
2021/10/18 09:03:33;;;;;;;37.67;19.75;;;;;;;11.18;71.40;102066.69;5047177;28;20541;-50
2021/10/18 09:06:18;;;;;;;42.30;18.90;;;;;;;11.12;71.16;102059.25;5053502;28;20032;-49
2021/10/18 09:08:50;;;;;;;33.13;19.63;;;;;;;11.02;71.63;102063.03;5052518;28;20103;-48
2021/10/18 09:11:18;;;;;;;38.63;19.10;;;;;;;10.91;71.41;102064.13;5051378;28;20079;-47
2021/10/18 09:13:52;;;;;;;;;;;;;;;10.87;72.29;102062.72;5046725;28;20480;-47
2021/10/18 09:16:25;;;;;;;38.08;18.50;;;;;;;11.04;71.70;102067.25;5030293;28;20051;-47
2021/10/18 09:19:05;;;;;;;42.25;19.02;;;;;;;11.19;71.59;102063.03;5030422;28;20116;-52
2021/10/18 09:21:32;;;;;;;35.67;19.95;;;;;;;11.24;71.56;102069.78;5031142;28;20040;-48
2021/10/18 09:24:00;;;;;;;37.80;18.63;;;;;;;11.32;71.47;102068.00;5043607;28;20075;-51
2021/10/18 09:26:26;;;;;;;32.30;19.05;;;;;;;11.46;71.18;102074.66;5041410;28;20025;-47
2021/10/18 09:28:55;;;;;;;39.40;19.65;;;;;;;11.38;70.33;102075.47;5051328;28;20127;-47
2021/10/18 09:31:20;;;;;;;35.33;18.27;;;;;;;11.34;70.93;102081.31;5059835;28;20036;-46
2021/10/18 09:33:54;;;;;;;35.58;19.50;;;;;;;11.38;70.95;102080.00;5047825;28;20032;-46
2021/10/18 09:36:23;;;;;;;37.97;19.83;;;;;;;11.38;70.71;102071.91;5049098;28;20037;-46
2021/10/18 09:38:49;;;;;;;29.58;18.40;;;;;;;11.42;70.71;102068.72;5041737;28;20067;-46
2021/10/18 09:41:23;;;;;;;35.40;18.17;;;;;;;11.55;70.96;102062.94;5040685;28;20017;-47
2021/10/18 09:43:56;;;;;;;35.28;18.73;;;;;;;11.57;70.45;102066.31;5034836;28;20037;-47
2021/10/18 09:46:36;;;;;;;31.98;18.08;;;;;;;11.43;70.62;102061.50;5029259;28;20064;-49
2021/10/18 10:56:16;;;;;;;30.73;18.05;;;;;;;12.82;66.96;102002.69;5045384;28;20042;-46
2021/10/18 10:58:52;;;;;;;29.38;17.67;;;;;;;12.72;66.89;102004.72;5031700;28;20408;-47
2021/10/18 11:01:45;;;;;;;31.50;18.70;;;;;;;12.56;68.04;101999.28;5042153;28;20546;-47
2021/10/18 11:04:31;;;;;;;29.85;17.17;;;;;;;12.45;68.20;102001.31;5044320;28;20099;-48
2021/10/18 11:07:04;;;;;;;31.50;17.35;;;;;;;12.43;68.40;101997.09;5041977;28;20025;-50
2021/10/18 11:09:53;;;;;;;35.55;18.15;;;;;;;12.58;68.26;101999.97;5044343;28;20029;-48
2021/10/18 11:12:20;;;;;;;34.92;17.85;;;;;;;12.45;68.65;101985.09;5057970;28;20040;-47
2021/10/18 11:15:01;;;;;;;31.30;17.23;;;;;;;12.45;68.67;101986.94;5045740;28;20069;-48
2021/10/18 11:17:29;;;;;;;26.73;16.88;;;;;;;12.51;68.56;101995.22;5055644;28;20060;-50
2021/10/18 11:19:56;;;;;;;29.27;16.92;;;;;;;12.62;67.80;101993.22;5055847;28;20480;-49
2021/10/18 11:22:36;;;;;;;33.67;19.20;;;;;;;12.64;67.74;101985.81;5055531;28;20049;-48
2021/10/18 11:25:24;;;;;;;29.85;17.73;;;;;;;12.70;67.63;101966.22;5054023;28;20434;-49
2021/10/18 11:28:11;;;;;;;30.50;16.23;;;;;;;12.78;67.27;101962.66;5034953;28;20119;-50
2021/10/18 11:30:38;;;;;;;28.35;17.20;;;;;;;12.77;67.39;101958.25;5062443;28;20373;-48
2021/10/18 11:33:07;;;;;;;28.52;16.63;;;;;;;12.76;66.73;101945.78;5060192;28;20026;-48
2021/10/18 11:35:33;;;;;;;28.58;16.23;;;;;;;12.83;67.10;101952.19;5048422;28;20025;-51
2021/10/18 11:38:10;;;;;;;30.25;16.50;;;;;;;12.85;67.10;101947.44;5055666;28;20036;-49
2021/10/18 11:40:37;;;;;;;29.08;16.23;;;;;;;12.94;67.35;101944.59;5055397;28;20025;-49
2021/10/18 11:43:08;;;;;;;27.58;17.05;;;;;;;12.95;67.27;101932.78;5055584;28;20419;-49
2021/10/18 11:45:45;;;;;;;29.55;15.95;;;;;;;12.85;67.07;101932.09;5053294;28;20029;-51
2021/10/18 11:48:13;;;;;;;31.00;17.40;;;;;;;12.87;67.74;101923.81;5035163;28;20025;-50
2021/10/18 11:50:39;;;;;;;;;;;;;;;12.81;67.03;101914.53;5039447;28;20138;-51
2021/10/18 11:53:11;;;;;;;27.35;15.77;;;;;;;12.87;67.19;101932.75;5040084;28;19924;-51
2021/10/18 11:55:40;;;;;;;26.13;14.93;;;;;;;13.06;66.51;101938.81;5034831;28;20021;-49
2021/10/18 11:58:06;;;;;;;31.40;15.52;;;;;;;13.15;66.48;101943.22;5049414;28;20040;-51
2021/10/18 12:00:43;;;;;;;26.58;14.82;;;;;;;13.05;66.47;101948.78;5055370;28;20369;-51
2021/10/18 12:03:09;;;;;;;31.67;16.30;;;;;;;13.16;66.72;101943.03;5047633;28;20033;-48
2021/10/18 12:05:39;;;;;;;28.20;15.73;;;;;;;13.18;66.46;101932.03;5051671;28;20368;-47
2021/10/18 12:08:05;;;;;;;32.42;15.85;;;;;;;13.18;66.62;101932.03;5053820;28;20033;-49
2021/10/18 12:10:31;;;;;;;31.90;15.48;;;;;;;13.26;66.17;101934.75;5045827;28;20045;-48
2021/10/18 12:13:11;;;;;;;30.85;14.60;;;;;;;13.37;66.31;101920.84;5035189;28;20032;-47
2021/10/18 12:15:58;;;;;;;24.20;14.38;;;;;;;13.45;65.92;101927.28;5047763;28;20442;-46
2021/10/18 12:18:31;;;;;;;32.67;13.77;;;;;;;13.57;65.28;101928.59;5033546;28;20104;-47
2021/10/18 12:21:07;;;;;;;25.63;14.52;;;;;;;13.59;65.45;101934.66;5047992;28;20040;-49
2021/10/18 12:23:35;;;;;;;31.30;15.23;;;;;;;13.62;65.78;101937.03;5053549;28;20078;-48